sensor_id;sensor_type;location;lat;lon;timestamp;P1;durP1;ratioP1;P2;durP2;ratioP2
43696;SDS011;29301;47.620;19.560;2022-12-18T00:54:37;1.40;;;1.00;;
43696;SDS011;29301;47.620;19.560;2022-12-18T01:49:55;1.45;;;1.00;;
43696;SDS011;29301;47.620;19.560;2022-12-18T02:32:14;1.50;;;1.00;;
43696;SDS011;29301;47.620;19.560;2022-12-18T03:14:33;1.60;;;1.10;;
43696;SDS011;29301;47.620;19.560;2022-12-18T03:32:28;1.50;;;1.00;;
43696;SDS011;29301;47.620;19.560;2022-12-18T03:56:19;1.50;;;1.00;;
43696;SDS011;29301;47.620;19.560;2022-12-18T04:07:00;1.50;;;1.00;;
43696;SDS011;29301;47.620;19.560;2022-12-18T04:13:37;1.50;;;1.00;;
43696;SDS011;29301;47.620;19.560;2022-12-18T04:31:12;1.45;;;1.00;;
43696;SDS011;29301;47.620;19.560;2022-12-18T04:34:01;1.50;;;1.00;;
43696;SDS011;29301;47.620;19.560;2022-12-18T05:49:32;1.40;;;1.00;;
43696;SDS011;29301;47.620;19.560;2022-12-18T05:52:16;1.58;;;1.10;;
43696;SDS011;29301;47.620;19.560;2022-12-18T07:14:10;1.70;;;1.15;;
43696;SDS011;29301;47.620;19.560;2022-12-18T07:55:54;1.60;;;1.10;;
43696;SDS011;29301;47.620;19.560;2022-12-18T08:06:45;1.33;;;0.90;;
43696;SDS011;29301;47.620;19.560;2022-12-18T08:23:31;1.50;;;1.00;;
43696;SDS011;29301;47.620;19.560;2022-12-18T08:26:29;1.50;;;1.00;;
43696;SDS011;29301;47.620;19.560;2022-12-18T08:29:43;1.50;;;1.00;;
43696;SDS011;29301;47.620;19.560;2022-12-18T08:43:35;1.40;;;0.90;;
43696;SDS011;29301;47.620;19.560;2022-12-18T08:47:03;1.30;;;0.80;;
43696;SDS011;29301;47.620;19.560;2022-12-18T08:49:38;1.20;;;0.80;;
43696;SDS011;29301;47.620;19.560;2022-12-18T08:52:03;1.20;;;0.80;;
43696;SDS011;29301;47.620;19.560;2022-12-18T08:54:29;1.30;;;0.90;;
43696;SDS011;29301;47.620;19.560;2022-12-18T08:56:55;1.20;;;0.90;;
43696;SDS011;29301;47.620;19.560;2022-12-18T08:59:21;1.20;;;0.88;;
43696;SDS011;29301;47.620;19.560;2022-12-18T09:01:48;1.20;;;0.80;;
43696;SDS011;29301;47.620;19.560;2022-12-18T09:04:14;1.20;;;0.90;;
43696;SDS011;29301;47.620;19.560;2022-12-18T09:06:40;1.20;;;0.80;;
43696;SDS011;29301;47.620;19.560;2022-12-18T09:09:06;1.20;;;0.80;;
43696;SDS011;29301;47.620;19.560;2022-12-18T09:11:32;1.20;;;0.80;;
43696;SDS011;29301;47.620;19.560;2022-12-18T09:13:59;1.20;;;0.80;;
43696;SDS011;29301;47.620;19.560;2022-12-18T09:16:26;1.20;;;0.80;;
43696;SDS011;29301;47.620;19.560;2022-12-18T09:18:54;1.20;;;0.80;;
43696;SDS011;29301;47.620;19.560;2022-12-18T09:21:24;1.20;;;0.80;;
43696;SDS011;29301;47.620;19.560;2022-12-18T09:23:52;1.23;;;0.80;;
43696;SDS011;29301;47.620;19.560;2022-12-18T09:26:19;1.13;;;0.80;;
43696;SDS011;29301;47.620;19.560;2022-12-18T09:28:48;1.20;;;0.80;;
43696;SDS011;29301;47.620;19.560;2022-12-18T09:31:14;1.20;;;0.80;;
43696;SDS011;29301;47.620;19.560;2022-12-18T09:33:40;1.20;;;0.70;;
43696;SDS011;29301;47.620;19.560;2022-12-18T09:36:07;1.20;;;0.80;;
43696;SDS011;29301;47.620;19.560;2022-12-18T09:38:35;1.10;;;0.70;;
43696;SDS011;29301;47.620;19.560;2022-12-18T09:44:27;1.15;;;0.80;;
43696;SDS011;29301;47.620;19.560;2022-12-18T09:47:01;1.20;;;0.80;;
43696;SDS011;29301;47.620;19.560;2022-12-18T09:50:24;1.20;;;0.80;;
43696;SDS011;29301;47.620;19.560;2022-12-18T09:52:41;1.20;;;0.80;;
43696;SDS011;29301;47.620;19.560;2022-12-18T09:55:31;1.20;;;0.80;;
43696;SDS011;29301;47.620;19.560;2022-12-18T09:58:05;1.20;;;0.80;;
43696;SDS011;29301;47.620;19.560;2022-12-18T10:00:32;1.17;;;0.70;;
43696;SDS011;29301;47.620;19.560;2022-12-18T10:03:03;1.10;;;0.73;;
43696;SDS011;29301;47.620;19.560;2022-12-18T10:05:41;1.10;;;0.70;;
43696;SDS011;29301;47.620;19.560;2022-12-18T10:08:25;1.17;;;0.80;;
43696;SDS011;29301;47.620;19.560;2022-12-18T10:10:53;1.20;;;0.77;;
43696;SDS011;29301;47.620;19.560;2022-12-18T10:13:40;1.20;;;0.80;;
43696;SDS011;29301;47.620;19.560;2022-12-18T10:19:51;1.20;;;0.80;;
43696;SDS011;29301;47.620;19.560;2022-12-18T10:27:23;1.17;;;0.80;;
43696;SDS011;29301;47.620;19.560;2022-12-18T10:29:51;1.15;;;0.80;;
43696;SDS011;29301;47.620;19.560;2022-12-18T10:32:19;1.08;;;0.70;;
43696;SDS011;29301;47.620;19.560;2022-12-18T10:34:47;1.20;;;0.80;;
43696;SDS011;29301;47.620;19.560;2022-12-18T10:37:17;1.17;;;0.77;;
43696;SDS011;29301;47.620;19.560;2022-12-18T10:39:46;1.10;;;0.70;;
43696;SDS011;29301;47.620;19.560;2022-12-18T10:42:37;1.10;;;0.70;;
43696;SDS011;29301;47.620;19.560;2022-12-18T10:45:05;1.00;;;0.70;;
43696;SDS011;29301;47.620;19.560;2022-12-18T10:47:48;1.10;;;0.80;;
43696;SDS011;29301;47.620;19.560;2022-12-18T10:50:26;1.10;;;0.70;;
43696;SDS011;29301;47.620;19.560;2022-12-18T10:53:01;1.05;;;0.70;;
43696;SDS011;29301;47.620;19.560;2022-12-18T10:55:33;1.20;;;0.80;;
43696;SDS011;29301;47.620;19.560;2022-12-18T11:01:07;1.10;;;0.80;;
43696;SDS011;29301;47.620;19.560;2022-12-18T11:03:40;1.10;;;0.80;;
43696;SDS011;29301;47.620;19.560;2022-12-18T11:08:36;1.20;;;0.80;;
43696;SDS011;29301;47.620;19.560;2022-12-18T11:11:02;1.20;;;0.80;;
43696;SDS011;29301;47.620;19.560;2022-12-18T11:13:32;1.20;;;0.80;;
43696;SDS011;29301;47.620;19.560;2022-12-18T11:15:58;1.20;;;0.80;;
43696;SDS011;29301;47.620;19.560;2022-12-18T11:18:26;1.20;;;0.80;;
43696;SDS011;29301;47.620;19.560;2022-12-18T11:21:05;1.17;;;0.80;;
43696;SDS011;29301;47.620;19.560;2022-12-18T11:23:33;1.20;;;0.80;;
43696;SDS011;29301;47.620;19.560;2022-12-18T11:26:04;1.20;;;0.80;;
43696;SDS011;29301;47.620;19.560;2022-12-18T11:28:35;1.20;;;0.80;;
43696;SDS011;29301;47.620;19.560;2022-12-18T11:31:20;1.20;;;0.90;;
43696;SDS011;29301;47.620;19.560;2022-12-18T11:36:33;1.20;;;0.80;;
43696;SDS011;29301;47.620;19.560;2022-12-18T11:39:07;1.20;;;0.80;;
43696;SDS011;29301;47.620;19.560;2022-12-18T11:42:12;1.20;;;0.80;;
43696;SDS011;29301;47.620;19.560;2022-12-18T11:44:49;1.20;;;0.80;;
43696;SDS011;29301;47.620;19.560;2022-12-18T11:47:35;1.20;;;0.80;;
43696;SDS011;29301;47.620;19.560;2022-12-18T11:50:10;1.20;;;0.80;;
43696;SDS011;29301;47.620;19.560;2022-12-18T11:52:39;1.20;;;0.80;;
43696;SDS011;29301;47.620;19.560;2022-12-18T11:55:13;1.20;;;0.80;;
43696;SDS011;29301;47.620;19.560;2022-12-18T12:00:48;1.20;;;0.80;;
43696;SDS011;29301;47.620;19.560;2022-12-18T12:03:24;1.20;;;0.80;;
43696;SDS011;29301;47.620;19.560;2022-12-18T12:16:32;1.20;;;0.80;;
43696;SDS011;29301;47.620;19.560;2022-12-18T12:19:24;1.20;;;0.80;;
43696;SDS011;29301;47.620;19.560;2022-12-18T12:22:17;1.20;;;0.80;;
43696;SDS011;29301;47.620;19.560;2022-12-18T12:30:45;1.30;;;0.90;;
43696;SDS011;29301;47.620;19.560;2022-12-18T12:33:33;1.20;;;0.80;;
43696;SDS011;29301;47.620;19.560;2022-12-18T12:39:06;1.20;;;0.90;;
43696;SDS011;29301;47.620;19.560;2022-12-18T12:41:37;1.20;;;0.90;;
43696;SDS011;29301;47.620;19.560;2022-12-18T12:44:26;1.30;;;0.90;;
43696;SDS011;29301;47.620;19.560;2022-12-18T12:46:56;1.20;;;0.80;;
43696;SDS011;29301;47.620;19.560;2022-12-18T12:49:29;1.20;;;0.80;;
43696;SDS011;29301;47.620;19.560;2022-12-18T12:52:04;1.20;;;0.80;;
43696;SDS011;29301;47.620;19.560;2022-12-18T12:54:36;1.20;;;0.90;;
43696;SDS011;29301;47.620;19.560;2022-12-18T12:59:37;1.20;;;0.80;;
43696;SDS011;29301;47.620;19.560;2022-12-18T13:07:55;1.30;;;0.80;;
43696;SDS011;29301;47.620;19.560;2022-12-18T13:10:34;1.20;;;0.80;;
43696;SDS011;29301;47.620;19.560;2022-12-18T13:13:16;1.17;;;0.80;;
43696;SDS011;29301;47.620;19.560;2022-12-18T13:15:48;1.20;;;0.88;;
43696;SDS011;29301;47.620;19.560;2022-12-18T13:18:28;1.20;;;0.82;;
43696;SDS011;29301;47.620;19.560;2022-12-18T13:25:52;1.20;;;0.80;;
43696;SDS011;29301;47.620;19.560;2022-12-18T13:29:00;1.20;;;0.80;;
43696;SDS011;29301;47.620;19.560;2022-12-18T13:31:10;1.20;;;0.80;;
43696;SDS011;29301;47.620;19.560;2022-12-18T13:33:36;1.30;;;0.80;;
43696;SDS011;29301;47.620;19.560;2022-12-18T13:36:16;1.30;;;0.85;;
43696;SDS011;29301;47.620;19.560;2022-12-18T13:39:34;1.20;;;0.80;;
43696;SDS011;29301;47.620;19.560;2022-12-18T13:41:44;1.20;;;0.80;;
43696;SDS011;29301;47.620;19.560;2022-12-18T13:44:24;1.20;;;0.80;;
43696;SDS011;29301;47.620;19.560;2022-12-18T13:46:59;1.20;;;0.80;;
43696;SDS011;29301;47.620;19.560;2022-12-18T13:52:00;1.20;;;0.80;;
43696;SDS011;29301;47.620;19.560;2022-12-18T13:57:02;1.20;;;0.80;;
43696;SDS011;29301;47.620;19.560;2022-12-18T13:59:40;1.20;;;0.80;;
43696;SDS011;29301;47.620;19.560;2022-12-18T14:04:41;1.20;;;0.80;;
43696;SDS011;29301;47.620;19.560;2022-12-18T14:07:11;1.17;;;0.80;;
43696;SDS011;29301;47.620;19.560;2022-12-18T14:09:44;1.20;;;0.80;;
43696;SDS011;29301;47.620;19.560;2022-12-18T14:12:18;1.20;;;0.80;;
43696;SDS011;29301;47.620;19.560;2022-12-18T14:17:57;1.20;;;0.80;;
43696;SDS011;29301;47.620;19.560;2022-12-18T14:20:29;1.20;;;0.80;;
43696;SDS011;29301;47.620;19.560;2022-12-18T14:22:57;1.20;;;0.80;;
43696;SDS011;29301;47.620;19.560;2022-12-18T14:25:29;1.20;;;0.80;;
43696;SDS011;29301;47.620;19.560;2022-12-18T14:33:09;1.30;;;0.90;;
43696;SDS011;29301;47.620;19.560;2022-12-18T14:35:37;1.20;;;0.80;;
43696;SDS011;29301;47.620;19.560;2022-12-18T14:43:24;1.20;;;0.90;;
43696;SDS011;29301;47.620;19.560;2022-12-18T14:45:51;1.20;;;0.80;;
43696;SDS011;29301;47.620;19.560;2022-12-18T14:48:19;1.20;;;0.80;;
43696;SDS011;29301;47.620;19.560;2022-12-18T14:51:03;1.20;;;0.80;;
43696;SDS011;29301;47.620;19.560;2022-12-18T14:56:19;1.30;;;0.80;;
43696;SDS011;29301;47.620;19.560;2022-12-18T14:58:46;1.20;;;0.80;;
43696;SDS011;29301;47.620;19.560;2022-12-18T15:01:20;1.30;;;0.90;;
43696;SDS011;29301;47.620;19.560;2022-12-18T15:03:49;1.40;;;0.90;;
43696;SDS011;29301;47.620;19.560;2022-12-18T15:06:17;1.30;;;0.90;;
43696;SDS011;29301;47.620;19.560;2022-12-18T15:08:49;1.38;;;0.90;;
43696;SDS011;29301;47.620;19.560;2022-12-18T15:14:21;1.20;;;0.90;;
43696;SDS011;29301;47.620;19.560;2022-12-18T15:16:50;1.30;;;0.90;;
43696;SDS011;29301;47.620;19.560;2022-12-18T15:19:17;1.40;;;0.90;;
43696;SDS011;29301;47.620;19.560;2022-12-18T15:21:44;1.30;;;0.90;;
43696;SDS011;29301;47.620;19.560;2022-12-18T15:24:16;1.30;;;0.90;;
43696;SDS011;29301;47.620;19.560;2022-12-18T15:26:47;1.30;;;0.90;;
43696;SDS011;29301;47.620;19.560;2022-12-18T15:29:19;1.30;;;0.90;;
43696;SDS011;29301;47.620;19.560;2022-12-18T15:32:03;1.33;;;0.90;;
43696;SDS011;29301;47.620;19.560;2022-12-18T15:34:40;1.40;;;0.90;;
43696;SDS011;29301;47.620;19.560;2022-12-18T15:37:07;1.40;;;0.90;;
43696;SDS011;29301;47.620;19.560;2022-12-18T15:39:39;1.30;;;0.90;;
43696;SDS011;29301;47.620;19.560;2022-12-18T15:42:08;1.30;;;0.90;;
43696;SDS011;29301;47.620;19.560;2022-12-18T15:44:53;1.30;;;0.90;;
43696;SDS011;29301;47.620;19.560;2022-12-18T15:47:19;1.33;;;0.90;;
43696;SDS011;29301;47.620;19.560;2022-12-18T15:49:45;1.30;;;0.90;;
43696;SDS011;29301;47.620;19.560;2022-12-18T15:52:11;1.30;;;0.90;;
43696;SDS011;29301;47.620;19.560;2022-12-18T15:54:38;1.20;;;0.82;;
43696;SDS011;29301;47.620;19.560;2022-12-18T15:57:23;1.20;;;0.80;;
43696;SDS011;29301;47.620;19.560;2022-12-18T15:59:49;1.20;;;0.80;;
43696;SDS011;29301;47.620;19.560;2022-12-18T16:02:24;1.30;;;0.90;;
43696;SDS011;29301;47.620;19.560;2022-12-18T16:04:50;1.30;;;0.80;;
43696;SDS011;29301;47.620;19.560;2022-12-18T16:07:17;1.20;;;0.80;;
43696;SDS011;29301;47.620;19.560;2022-12-18T16:09:43;1.20;;;0.88;;
43696;SDS011;29301;47.620;19.560;2022-12-18T16:12:14;1.33;;;0.90;;
43696;SDS011;29301;47.620;19.560;2022-12-18T16:14:47;1.30;;;0.90;;
43696;SDS011;29301;47.620;19.560;2022-12-18T16:17:13;1.30;;;0.90;;
43696;SDS011;29301;47.620;19.560;2022-12-18T16:19:39;1.30;;;0.90;;
43696;SDS011;29301;47.620;19.560;2022-12-18T16:22:15;1.33;;;0.90;;
43696;SDS011;29301;47.620;19.560;2022-12-18T16:24:45;1.30;;;0.90;;
43696;SDS011;29301;47.620;19.560;2022-12-18T16:27:10;1.40;;;0.90;;
43696;SDS011;29301;47.620;19.560;2022-12-18T16:29:36;1.40;;;0.90;;
43696;SDS011;29301;47.620;19.560;2022-12-18T16:32:02;1.30;;;0.90;;
43696;SDS011;29301;47.620;19.560;2022-12-18T16:34:28;1.30;;;0.90;;
43696;SDS011;29301;47.620;19.560;2022-12-18T16:36:59;1.23;;;0.90;;
43696;SDS011;29301;47.620;19.560;2022-12-18T16:39:29;1.40;;;0.93;;
43696;SDS011;29301;47.620;19.560;2022-12-18T16:41:59;1.40;;;0.90;;
43696;SDS011;29301;47.620;19.560;2022-12-18T16:44:37;1.40;;;0.90;;
43696;SDS011;29301;47.620;19.560;2022-12-18T16:47:03;1.40;;;0.90;;
43696;SDS011;29301;47.620;19.560;2022-12-18T16:49:28;1.30;;;0.90;;
43696;SDS011;29301;47.620;19.560;2022-12-18T16:51:54;1.40;;;0.90;;
43696;SDS011;29301;47.620;19.560;2022-12-18T16:54:20;1.38;;;0.90;;
43696;SDS011;29301;47.620;19.560;2022-12-18T16:56:46;1.30;;;0.90;;
43696;SDS011;29301;47.620;19.560;2022-12-18T16:59:13;1.30;;;0.90;;
43696;SDS011;29301;47.620;19.560;2022-12-18T17:01:39;1.30;;;0.90;;
43696;SDS011;29301;47.620;19.560;2022-12-18T17:04:06;1.30;;;0.90;;
43696;SDS011;29301;47.620;19.560;2022-12-18T17:06:33;1.50;;;0.90;;
43696;SDS011;29301;47.620;19.560;2022-12-18T17:09:02;1.30;;;0.90;;
43696;SDS011;29301;47.620;19.560;2022-12-18T17:11:30;1.20;;;0.90;;
43696;SDS011;29301;47.620;19.560;2022-12-18T17:13:58;1.30;;;0.90;;
43696;SDS011;29301;47.620;19.560;2022-12-18T17:16:24;1.33;;;0.90;;
43696;SDS011;29301;47.620;19.560;2022-12-18T17:18:51;1.30;;;0.90;;
43696;SDS011;29301;47.620;19.560;2022-12-18T17:21:17;1.38;;;0.90;;
43696;SDS011;29301;47.620;19.560;2022-12-18T17:23:43;1.40;;;0.90;;
43696;SDS011;29301;47.620;19.560;2022-12-18T17:26:12;1.42;;;1.00;;
43696;SDS011;29301;47.620;19.560;2022-12-18T17:28:38;1.30;;;0.90;;
43696;SDS011;29301;47.620;19.560;2022-12-18T17:31:18;1.50;;;1.00;;
43696;SDS011;29301;47.620;19.560;2022-12-18T17:33:45;1.40;;;0.90;;
43696;SDS011;29301;47.620;19.560;2022-12-18T17:36:12;1.40;;;0.90;;
43696;SDS011;29301;47.620;19.560;2022-12-18T17:38:38;1.50;;;1.00;;
43696;SDS011;29301;47.620;19.560;2022-12-18T17:41:08;1.30;;;0.90;;
43696;SDS011;29301;47.620;19.560;2022-12-18T17:43:35;1.40;;;0.90;;
43696;SDS011;29301;47.620;19.560;2022-12-18T17:46:09;1.35;;;0.90;;
43696;SDS011;29301;47.620;19.560;2022-12-18T17:48:36;1.50;;;1.00;;
43696;SDS011;29301;47.620;19.560;2022-12-18T17:51:03;1.48;;;1.00;;
43696;SDS011;29301;47.620;19.560;2022-12-18T17:53:30;1.40;;;1.00;;
43696;SDS011;29301;47.620;19.560;2022-12-18T17:55:56;1.50;;;1.00;;
43696;SDS011;29301;47.620;19.560;2022-12-18T17:58:25;1.50;;;1.00;;
43696;SDS011;29301;47.620;19.560;2022-12-18T18:00:51;1.40;;;0.90;;
43696;SDS011;29301;47.620;19.560;2022-12-18T18:03:17;1.50;;;1.00;;
43696;SDS011;29301;47.620;19.560;2022-12-18T18:05:43;1.40;;;1.00;;
43696;SDS011;29301;47.620;19.560;2022-12-18T18:08:08;1.40;;;0.90;;
43696;SDS011;29301;47.620;19.560;2022-12-18T18:10:35;1.50;;;1.00;;
43696;SDS011;29301;47.620;19.560;2022-12-18T18:13:02;1.50;;;1.00;;
43696;SDS011;29301;47.620;19.560;2022-12-18T18:15:54;1.40;;;0.93;;
43696;SDS011;29301;47.620;19.560;2022-12-18T18:18:21;1.50;;;1.00;;
43696;SDS011;29301;47.620;19.560;2022-12-18T18:20:47;1.40;;;0.90;;
43696;SDS011;29301;47.620;19.560;2022-12-18T18:23:12;1.50;;;1.00;;
43696;SDS011;29301;47.620;19.560;2022-12-18T18:25:38;1.42;;;0.95;;
43696;SDS011;29301;47.620;19.560;2022-12-18T18:28:04;1.40;;;0.90;;
43696;SDS011;29301;47.620;19.560;2022-12-18T18:30:29;1.40;;;1.00;;
43696;SDS011;29301;47.620;19.560;2022-12-18T18:32:55;1.50;;;1.00;;
43696;SDS011;29301;47.620;19.560;2022-12-18T18:35:21;1.50;;;0.98;;
43696;SDS011;29301;47.620;19.560;2022-12-18T18:37:47;1.40;;;1.00;;
43696;SDS011;29301;47.620;19.560;2022-12-18T18:40:13;1.40;;;1.00;;
43696;SDS011;29301;47.620;19.560;2022-12-18T18:42:38;1.40;;;0.90;;
43696;SDS011;29301;47.620;19.560;2022-12-18T18:45:04;1.50;;;1.00;;
43696;SDS011;29301;47.620;19.560;2022-12-18T18:47:30;1.40;;;1.00;;
43696;SDS011;29301;47.620;19.560;2022-12-18T18:49:56;1.40;;;0.90;;
43696;SDS011;29301;47.620;19.560;2022-12-18T18:52:21;1.40;;;0.90;;
43696;SDS011;29301;47.620;19.560;2022-12-18T18:54:47;1.40;;;0.95;;
43696;SDS011;29301;47.620;19.560;2022-12-18T18:57:13;1.42;;;1.00;;
43696;SDS011;29301;47.620;19.560;2022-12-18T18:59:39;1.30;;;0.90;;
43696;SDS011;29301;47.620;19.560;2022-12-18T19:02:08;1.40;;;0.90;;
43696;SDS011;29301;47.620;19.560;2022-12-18T19:04:38;1.30;;;0.90;;
43696;SDS011;29301;47.620;19.560;2022-12-18T19:07:04;1.33;;;0.90;;
43696;SDS011;29301;47.620;19.560;2022-12-18T19:09:30;1.40;;;0.90;;
43696;SDS011;29301;47.620;19.560;2022-12-18T19:11:56;1.50;;;1.00;;
43696;SDS011;29301;47.620;19.560;2022-12-18T19:14:40;1.30;;;0.90;;
43696;SDS011;29301;47.620;19.560;2022-12-18T19:17:06;1.33;;;0.90;;
43696;SDS011;29301;47.620;19.560;2022-12-18T19:19:32;1.40;;;1.00;;
43696;SDS011;29301;47.620;19.560;2022-12-18T19:21:58;1.42;;;0.90;;
43696;SDS011;29301;47.620;19.560;2022-12-18T19:24:23;1.40;;;0.90;;
43696;SDS011;29301;47.620;19.560;2022-12-18T19:26:49;1.40;;;0.90;;
43696;SDS011;29301;47.620;19.560;2022-12-18T19:29:16;1.40;;;0.90;;
43696;SDS011;29301;47.620;19.560;2022-12-18T19:31:42;1.30;;;0.90;;
43696;SDS011;29301;47.620;19.560;2022-12-18T19:34:09;1.30;;;0.90;;
43696;SDS011;29301;47.620;19.560;2022-12-18T19:36:36;1.30;;;0.90;;
43696;SDS011;29301;47.620;19.560;2022-12-18T19:39:14;1.40;;;0.90;;
43696;SDS011;29301;47.620;19.560;2022-12-18T19:41:41;1.40;;;0.90;;
43696;SDS011;29301;47.620;19.560;2022-12-18T19:44:07;1.30;;;0.90;;
43696;SDS011;29301;47.620;19.560;2022-12-18T19:46:35;1.40;;;0.90;;
43696;SDS011;29301;47.620;19.560;2022-12-18T19:49:01;1.30;;;0.90;;
43696;SDS011;29301;47.620;19.560;2022-12-18T19:51:28;1.40;;;0.93;;
43696;SDS011;29301;47.620;19.560;2022-12-18T19:53:55;1.40;;;1.00;;
43696;SDS011;29301;47.620;19.560;2022-12-18T19:56:22;1.40;;;1.00;;
43696;SDS011;29301;47.620;19.560;2022-12-18T19:58:50;1.50;;;1.00;;
43696;SDS011;29301;47.620;19.560;2022-12-18T20:01:17;1.52;;;1.00;;
43696;SDS011;29301;47.620;19.560;2022-12-18T20:03:44;1.40;;;1.00;;
43696;SDS011;29301;47.620;19.560;2022-12-18T20:06:12;1.60;;;1.00;;
43696;SDS011;29301;47.620;19.560;2022-12-18T20:08:48;1.40;;;1.00;;
43696;SDS011;29301;47.620;19.560;2022-12-18T20:11:15;1.50;;;1.00;;
43696;SDS011;29301;47.620;19.560;2022-12-18T20:13:40;1.30;;;0.90;;
43696;SDS011;29301;47.620;19.560;2022-12-18T20:16:06;1.50;;;1.00;;
43696;SDS011;29301;47.620;19.560;2022-12-18T20:18:32;1.50;;;1.00;;
43696;SDS011;29301;47.620;19.560;2022-12-18T20:20:58;1.50;;;1.00;;
43696;SDS011;29301;47.620;19.560;2022-12-18T20:23:24;1.50;;;1.00;;
43696;SDS011;29301;47.620;19.560;2022-12-18T20:25:52;1.52;;;1.00;;
43696;SDS011;29301;47.620;19.560;2022-12-18T20:28:19;1.50;;;1.00;;
43696;SDS011;29301;47.620;19.560;2022-12-18T20:30:45;1.50;;;1.00;;
43696;SDS011;29301;47.620;19.560;2022-12-18T20:33:10;1.50;;;1.00;;
43696;SDS011;29301;47.620;19.560;2022-12-18T20:35:36;1.40;;;1.00;;
43696;SDS011;29301;47.620;19.560;2022-12-18T20:38:01;1.55;;;1.00;;
43696;SDS011;29301;47.620;19.560;2022-12-18T20:40:27;1.55;;;1.00;;
43696;SDS011;29301;47.620;19.560;2022-12-18T20:42:53;1.58;;;1.00;;
43696;SDS011;29301;47.620;19.560;2022-12-18T20:45:19;1.50;;;1.00;;
43696;SDS011;29301;47.620;19.560;2022-12-18T20:47:44;1.50;;;1.00;;
43696;SDS011;29301;47.620;19.560;2022-12-18T20:50:10;1.40;;;0.93;;
43696;SDS011;29301;47.620;19.560;2022-12-18T20:52:36;1.50;;;1.00;;
43696;SDS011;29301;47.620;19.560;2022-12-18T20:55:02;1.45;;;1.00;;
43696;SDS011;29301;47.620;19.560;2022-12-18T20:57:28;1.60;;;1.00;;
43696;SDS011;29301;47.620;19.560;2022-12-18T20:59:54;1.40;;;1.00;;
43696;SDS011;29301;47.620;19.560;2022-12-18T21:02:20;1.50;;;1.00;;
43696;SDS011;29301;47.620;19.560;2022-12-18T21:04:46;1.42;;;1.00;;
43696;SDS011;29301;47.620;19.560;2022-12-18T21:07:11;1.40;;;0.90;;
43696;SDS011;29301;47.620;19.560;2022-12-18T21:09:37;1.58;;;1.00;;
43696;SDS011;29301;47.620;19.560;2022-12-18T21:12:03;1.45;;;1.00;;
43696;SDS011;29301;47.620;19.560;2022-12-18T21:15:03;1.40;;;1.00;;
43696;SDS011;29301;47.620;19.560;2022-12-18T21:17:31;1.50;;;1.00;;
43696;SDS011;29301;47.620;19.560;2022-12-18T21:19:56;1.42;;;1.00;;
43696;SDS011;29301;47.620;19.560;2022-12-18T21:22:22;1.20;;;0.85;;
43696;SDS011;29301;47.620;19.560;2022-12-18T21:24:48;1.38;;;0.90;;
43696;SDS011;29301;47.620;19.560;2022-12-18T21:27:13;1.30;;;0.90;;
43696;SDS011;29301;47.620;19.560;2022-12-18T21:29:39;1.40;;;1.00;;
43696;SDS011;29301;47.620;19.560;2022-12-18T21:32:05;1.40;;;0.90;;
43696;SDS011;29301;47.620;19.560;2022-12-18T21:34:33;1.50;;;1.00;;
43696;SDS011;29301;47.620;19.560;2022-12-18T21:36:59;1.50;;;1.00;;
43696;SDS011;29301;47.620;19.560;2022-12-18T21:39:26;1.40;;;0.90;;
43696;SDS011;29301;47.620;19.560;2022-12-18T21:41:52;1.40;;;1.00;;
43696;SDS011;29301;47.620;19.560;2022-12-18T21:44:37;1.38;;;0.90;;
43696;SDS011;29301;47.620;19.560;2022-12-18T21:47:03;1.42;;;1.00;;
43696;SDS011;29301;47.620;19.560;2022-12-18T21:49:29;1.50;;;1.00;;
43696;SDS011;29301;47.620;19.560;2022-12-18T21:51:56;1.40;;;0.90;;
43696;SDS011;29301;47.620;19.560;2022-12-18T21:54:23;1.40;;;0.90;;
43696;SDS011;29301;47.620;19.560;2022-12-18T21:59:23;1.50;;;0.90;;
43696;SDS011;29301;47.620;19.560;2022-12-18T22:01:49;1.50;;;1.00;;
43696;SDS011;29301;47.620;19.560;2022-12-18T22:04:16;1.40;;;0.90;;
43696;SDS011;29301;47.620;19.560;2022-12-18T22:06:43;1.40;;;0.90;;
43696;SDS011;29301;47.620;19.560;2022-12-18T22:09:11;1.40;;;0.90;;
43696;SDS011;29301;47.620;19.560;2022-12-18T22:11:38;1.40;;;1.00;;
43696;SDS011;29301;47.620;19.560;2022-12-18T22:14:04;1.50;;;1.00;;
43696;SDS011;29301;47.620;19.560;2022-12-18T22:16:29;1.45;;;1.00;;
43696;SDS011;29301;47.620;19.560;2022-12-18T22:18:55;1.50;;;1.00;;
43696;SDS011;29301;47.620;19.560;2022-12-18T22:21:25;1.50;;;1.00;;
43696;SDS011;29301;47.620;19.560;2022-12-18T22:23:55;1.30;;;0.90;;
43696;SDS011;29301;47.620;19.560;2022-12-18T22:26:23;1.40;;;0.90;;
43696;SDS011;29301;47.620;19.560;2022-12-18T22:28:50;1.50;;;1.00;;
43696;SDS011;29301;47.620;19.560;2022-12-18T22:31:35;1.40;;;0.90;;
43696;SDS011;29301;47.620;19.560;2022-12-18T22:34:01;1.40;;;1.00;;
43696;SDS011;29301;47.620;19.560;2022-12-18T22:36:27;1.40;;;0.90;;
43696;SDS011;29301;47.620;19.560;2022-12-18T22:38:59;1.38;;;0.90;;
43696;SDS011;29301;47.620;19.560;2022-12-18T22:41:25;1.40;;;0.90;;
43696;SDS011;29301;47.620;19.560;2022-12-18T22:43:51;1.38;;;0.90;;
43696;SDS011;29301;47.620;19.560;2022-12-18T22:46:17;1.40;;;0.90;;
43696;SDS011;29301;47.620;19.560;2022-12-18T22:48:48;1.40;;;1.00;;
43696;SDS011;29301;47.620;19.560;2022-12-18T22:51:14;1.30;;;0.90;;
43696;SDS011;29301;47.620;19.560;2022-12-18T22:53:42;1.40;;;0.93;;
43696;SDS011;29301;47.620;19.560;2022-12-18T22:56:08;1.30;;;0.90;;
43696;SDS011;29301;47.620;19.560;2022-12-18T22:58:34;1.33;;;0.90;;
43696;SDS011;29301;47.620;19.560;2022-12-18T23:01:00;1.42;;;1.00;;
43696;SDS011;29301;47.620;19.560;2022-12-18T23:03:26;1.50;;;1.00;;
43696;SDS011;29301;47.620;19.560;2022-12-18T23:05:52;1.40;;;0.90;;
43696;SDS011;29301;47.620;19.560;2022-12-18T23:08:25;1.30;;;0.90;;
43696;SDS011;29301;47.620;19.560;2022-12-18T23:10:51;1.45;;;0.93;;
43696;SDS011;29301;47.620;19.560;2022-12-18T23:13:17;1.40;;;0.90;;
43696;SDS011;29301;47.620;19.560;2022-12-18T23:15:43;1.30;;;0.90;;
43696;SDS011;29301;47.620;19.560;2022-12-18T23:18:08;1.50;;;1.00;;
43696;SDS011;29301;47.620;19.560;2022-12-18T23:20:34;1.40;;;1.00;;
43696;SDS011;29301;47.620;19.560;2022-12-18T23:22:59;1.30;;;0.90;;
43696;SDS011;29301;47.620;19.560;2022-12-18T23:25:25;1.40;;;0.95;;
43696;SDS011;29301;47.620;19.560;2022-12-18T23:27:51;1.30;;;0.90;;
43696;SDS011;29301;47.620;19.560;2022-12-18T23:30:16;1.42;;;0.93;;
43696;SDS011;29301;47.620;19.560;2022-12-18T23:32:42;1.50;;;0.95;;
43696;SDS011;29301;47.620;19.560;2022-12-18T23:35:08;1.30;;;0.90;;
43696;SDS011;29301;47.620;19.560;2022-12-18T23:37:33;1.30;;;0.90;;
43696;SDS011;29301;47.620;19.560;2022-12-18T23:39:59;1.40;;;1.00;;
43696;SDS011;29301;47.620;19.560;2022-12-18T23:42:25;1.30;;;0.90;;
43696;SDS011;29301;47.620;19.560;2022-12-18T23:44:50;1.42;;;0.90;;
43696;SDS011;29301;47.620;19.560;2022-12-18T23:47:16;1.40;;;0.98;;
43696;SDS011;29301;47.620;19.560;2022-12-18T23:49:41;1.30;;;0.90;;
43696;SDS011;29301;47.620;19.560;2022-12-18T23:52:07;1.50;;;1.00;;
43696;SDS011;29301;47.620;19.560;2022-12-18T23:54:33;1.50;;;1.00;;
43696;SDS011;29301;47.620;19.560;2022-12-18T23:56:58;1.40;;;0.90;;
43696;SDS011;29301;47.620;19.560;2022-12-18T23:59:24;1.33;;;0.90;;
